Time;durP1;ratioP1;P1;durP2;ratioP2;P2;SDS_P1;SDS_P2;PMS_P1;PMS_P2;Temp;Humidity;BMP_temperature;BMP_pressure;BME280_temperature;BME280_humidity;BME280_pressure;Samples;Min_cycle;Max_cycle;Signal;HPM_P1;HPM_P2
2022/05/01 00:01:40;;;;;;;3.60;3.17;;;;;;;;;;5093894;28;20245;-92
2022/05/01 00:04:09;;;;;;;4.53;3.70;;;;;;;;;;5093683;28;20273;-92
2022/05/01 00:06:36;;;;;;;3.57;3.27;;;;;;;;;;5094022;28;20196;-92
2022/05/01 00:09:05;;;;;;;4.70;3.53;;;;;;;;;;5093814;28;20196;-92
2022/05/01 00:11:32;;;;;;;3.63;3.33;;;;;;;;;;5093980;28;20208;-92
2022/05/01 00:13:59;;;;;;;3.87;3.40;;;;;;;;;;5087428;28;20708;-92
2022/05/01 00:16:26;;;;;;;3.80;3.50;;;;;;;;;;5072115;28;20236;-92
2022/05/01 00:18:54;;;;;;;4.37;3.33;;;;;;;;;;5073504;28;20575;-91
2022/05/01 00:21:25;;;;;;;4.47;3.03;;;;;;;;;;5073248;28;20189;-92
2022/05/01 00:23:53;;;;;;;3.33;3.03;;;;;;;;;;5073087;28;20233;-91
2022/05/01 00:26:20;;;;;;;6.47;3.67;;;;;;;;;;5073371;28;20204;-92
2022/05/01 00:28:47;;;;;;;3.23;2.93;;;;;;;;;;5072902;28;20669;-92
2022/05/01 00:31:16;;;;;;;3.43;3.13;;;;;;;;;;5072141;28;20280;-92
2022/05/01 00:36:38;;;;;;;3.90;3.57;;;;;;;;;;5073653;28;20656;-92
2022/05/01 00:39:09;;;;;;;4.77;3.77;;;;;;;;;;5072687;28;20764;-92
2022/05/01 00:41:37;;;;;;;3.37;3.07;;;;;;;;;;5073414;28;20208;-92
2022/05/01 00:44:06;;;;;;;4.03;3.63;;;;;;;;;;5072850;28;20236;-92
2022/05/01 00:46:34;;;;;;;3.50;3.07;;;;;;;;;;5072898;28;20262;-93
2022/05/01 00:49:04;;;;;;;4.10;3.47;;;;;;;;;;5073152;28;20227;-93
2022/05/01 00:51:33;;;;;;;4.43;4.13;;;;;;;;;;5072888;28;20323;-93
2022/05/01 00:54:07;;;;;;;3.97;3.57;;;;;;;;;;5073321;28;20197;-93
2022/05/01 00:56:35;;;;;;;3.33;3.07;;;;;;;;;;5073260;28;20207;-93
2022/05/01 00:59:02;;;;;;;4.47;3.33;;;;;;;;;;5072809;28;20193;-92
2022/05/01 01:01:30;;;;;;;4.23;3.63;;;;;;;;;;5072668;28;20704;-92
2022/05/01 01:03:57;;;;;;;3.60;3.30;;;;;;;;;;5072651;28;20223;-93
2022/05/01 01:06:24;;;;;;;4.37;3.93;;;;;;;;;;5072585;28;20201;-93
2022/05/01 01:08:52;;;;;;;5.00;3.70;;;;;;;;;;5072529;28;20192;-93
2022/05/01 01:11:21;;;;;;;4.90;3.20;;;;;;;;;;5072461;28;20208;-93
2022/05/01 01:13:51;;;;;;;3.70;3.40;;;;;;;;;;5072671;28;20192;-92
2022/05/01 01:16:20;;;;;;;7.27;4.20;;;;;;;;;;5072430;28;20193;-92
2022/05/01 01:18:47;;;;;;;4.50;3.30;;;;;;;;;;5072519;28;20204;-92
2022/05/01 01:21:25;;;;;;;6.80;3.50;;;;;;;;;;5072825;28;20280;-92
2022/05/01 01:23:53;;;;;;;3.87;3.47;;;;;;;;;;5072564;28;20351;-92
2022/05/01 01:26:20;;;;;;;4.00;3.27;;;;;;;;;;5072648;28;20208;-95
2022/05/01 01:28:49;;;;;;;4.50;3.87;;;;;;;;;;5072288;28;20280;-95
2022/05/01 01:34:05;;;;;;;3.83;3.33;;;;;;;;;;5072435;28;20181;-93
2022/05/01 01:36:42;;;;;;;4.67;4.20;;;;;;;;;;5072986;28;20216;-92
2022/05/01 01:39:18;;;;;;;5.20;3.40;;;;;;;;;;5072636;28;20656;-93
2022/05/01 01:41:46;;;;;;;3.60;3.30;;;;;;;;;;5073648;28;20181;-96
2022/05/01 01:44:14;;;;;;;3.80;3.50;;;;;;;;;;5076001;28;20231;-94
2022/05/01 01:46:42;;;;;;;3.70;3.40;;;;;;;;;;5076106;28;20201;-95
2022/05/01 01:49:12;;;;;;;3.97;3.67;;;;;;;;;;5076121;28;20219;-94
2022/05/01 01:51:40;;;;;;;3.40;3.10;;;;;;;;;;5074705;28;20724;-95
2022/05/01 01:54:08;;;;;;;5.63;4.40;;;;;;;;;;5074809;28;20247;-95
2022/05/01 01:56:36;;;;;;;4.13;3.80;;;;;;;;;;5074819;28;20193;-95
2022/05/01 01:59:04;;;;;;;3.60;3.30;;;;;;;;;;5074555;28;20189;-95
2022/05/01 02:01:31;;;;;;;4.77;4.23;;;;;;;;;;5074606;28;20573;-95
2022/05/01 02:04:07;;;;;;;4.83;4.43;;;;;;;;;;5074309;28;20199;-95
2022/05/01 02:06:34;;;;;;;6.13;5.53;;;;;;;;;;5074552;28;20275;-95
2022/05/01 02:09:07;;;;;;;4.87;4.47;;;;;;;;;;5074422;28;20223;-92
2022/05/01 02:11:41;;;;;;;4.40;4.00;;;;;;;;;;5074658;28;20201;-92
2022/05/01 02:14:10;;;;;;;6.47;4.77;;;;;;;;;;5074308;28;20212;-94
2022/05/01 02:16:37;;;;;;;5.27;4.47;;;;;;;;;;5074707;28;20223;-92
2022/05/01 02:19:07;;;;;;;5.30;4.80;;;;;;;;;;5074435;28;20193;-92
2022/05/01 02:21:37;;;;;;;4.80;4.30;;;;;;;;;;5074582;28;20737;-93
2022/05/01 02:24:10;;;;;;;5.20;3.93;;;;;;;;;;5074329;28;20219;-93
2022/05/01 02:26:38;;;;;;;4.90;4.50;;;;;;;;;;5074369;28;20633;-94
2022/05/01 02:29:11;;;;;;;5.63;5.13;;;;;;;;;;5074437;28;21053;-95
2022/05/01 02:31:39;;;;;;;5.20;4.77;;;;;;;;;;5074254;28;20211;-94
2022/05/01 02:34:06;;;;;;;4.83;4.33;;;;;;;;;;5074459;28;20193;-93
2022/05/01 02:36:36;;;;;;;4.20;3.87;;;;;;;;;;5074008;28;20197;-94
2022/05/01 02:39:08;;;;;;;4.33;4.00;;;;;;;;;;5074290;28;20284;-95
2022/05/01 02:41:36;;;;;;;4.70;4.07;;;;;;;;;;5074467;28;20709;-94
2022/05/01 02:44:03;;;;;;;8.53;4.30;;;;;;;;;;5073869;28;20284;-95
2022/05/01 02:46:32;;;;;;;4.77;3.97;;;;;;;;;;5074363;28;20680;-95
2022/05/01 02:48:59;;;;;;;4.23;3.90;;;;;;;;;;5074138;28;20558;-94
2022/05/01 02:51:27;;;;;;;4.40;3.93;;;;;;;;;;5021999;28;1501592;-95
2022/05/01 02:53:55;;;;;;;4.97;3.93;;;;;;;;;;5073697;28;20189;-93
2022/05/01 02:56:23;;;;;;;5.00;4.50;;;;;;;;;;5075097;28;20216;-92
2022/05/01 02:58:51;;;;;;;4.20;3.80;;;;;;;;;;5074791;28;20666;-93
2022/05/01 03:01:18;;;;;;;5.10;4.17;;;;;;;;;;5075275;28;20633;-93
2022/05/01 03:03:45;;;;;;;5.03;4.63;;;;;;;;;;5074309;28;20633;-92
2022/05/01 03:06:16;;;;;;;5.73;5.23;;;;;;;;;;5074732;28;20289;-93
2022/05/01 03:08:44;;;;;;;4.83;4.43;;;;;;;;;;5074711;28;20284;-93
2022/05/01 03:11:14;;;;;;;5.20;4.20;;;;;;;;;;5074430;28;20200;-93
2022/05/01 03:13:44;;;;;;;4.80;4.00;;;;;;;;;;5074588;28;20197;-92
2022/05/01 03:16:14;;;;;;;4.70;4.23;;;;;;;;;;5074423;28;20208;-93
2022/05/01 03:24:15;;;;;;;4.53;4.13;;;;;;;;;;5074142;28;20180;-94
2022/05/01 03:26:47;;;;;;;6.20;4.83;;;;;;;;;;5074537;28;20661;-93
2022/05/01 03:29:19;;;;;;;5.33;4.83;;;;;;;;;;5074576;28;20201;-94
2022/05/01 03:31:48;;;;;;;5.47;4.30;;;;;;;;;;5074601;28;20276;-95
2022/05/01 03:34:16;;;;;;;7.73;4.87;;;;;;;;;;5074643;28;20189;-95
2022/05/01 03:36:48;;;;;;;5.37;4.87;;;;;;;;;;5074093;28;20201;-95
2022/05/01 03:39:16;;;;;;;6.73;5.03;;;;;;;;;;5074191;28;20200;-94
2022/05/01 03:41:47;;;;;;;5.50;4.67;;;;;;;;;;5073974;28;20193;-95
2022/05/01 03:44:15;;;;;;;4.00;3.70;;;;;;;;;;5074068;28;20237;-95
2022/05/01 03:46:46;;;;;;;4.37;4.00;;;;;;;;;;5073647;28;20205;-96
2022/05/01 03:49:16;;;;;;;3.97;3.63;;;;;;;;;;5073698;28;20279;-96
2022/05/01 03:51:46;;;;;;;4.60;4.20;;;;;;;;;;5073679;28;20668;-95
2022/05/01 03:54:16;;;;;;;4.30;3.90;;;;;;;;;;5073731;28;20197;-95
2022/05/01 03:56:44;;;;;;;5.27;4.77;;;;;;;;;;5073564;28;20192;-95
2022/05/01 03:59:11;;;;;;;5.80;4.40;;;;;;;;;;5073719;28;20274;-95
2022/05/01 04:01:49;;;;;;;5.10;4.27;;;;;;;;;;5073702;28;20208;-94
2022/05/01 04:04:19;;;;;;;5.93;5.23;;;;;;;;;;5073293;28;20591;-96
2022/05/01 04:06:46;;;;;;;5.30;4.80;;;;;;;;;;5073222;28;20229;-95
2022/05/01 04:09:14;;;;;;;4.43;4.03;;;;;;;;;;5073490;28;20713;-95
2022/05/01 04:11:41;;;;;;;5.10;4.57;;;;;;;;;;5073325;28;20280;-95
2022/05/01 04:14:14;;;;;;;4.87;4.37;;;;;;;;;;5073421;28;20284;-94
2022/05/01 04:16:42;;;;;;;6.03;4.50;;;;;;;;;;5073174;28;20207;-94
2022/05/01 04:19:17;;;;;;;3.90;3.60;;;;;;;;;;5073163;28;20197;-94
2022/05/01 04:21:45;;;;;;;3.80;3.50;;;;;;;;;;5073430;28;20574;-95
2022/05/01 04:24:12;;;;;;;6.77;4.33;;;;;;;;;;5063175;28;20259;-94
2022/05/01 04:26:39;;;;;;;12.33;7.60;;;;;;;;;;5052781;28;20617;-94
2022/05/01 04:31:51;;;;;;;5.80;5.10;;;;;;;;;;5053255;28;20189;-91
2022/05/01 04:34:20;;;;;;;4.47;4.07;;;;;;;;;;5052977;28;20193;-92
2022/05/01 04:36:50;;;;;;;4.67;4.27;;;;;;;;;;5054091;28;20206;-94
2022/05/01 04:39:17;;;;;;;4.03;3.63;;;;;;;;;;5052960;28;20281;-94
2022/05/01 04:41:44;;;;;;;4.17;3.80;;;;;;;;;;5052803;28;20197;-94
2022/05/01 04:44:12;;;;;;;4.50;4.10;;;;;;;;;;5053073;28;20205;-94
2022/05/01 04:46:39;;;;;;;8.93;3.83;;;;;;;;;;5052107;28;20704;-94
2022/05/01 04:49:12;;;;;;;4.90;3.87;;;;;;;;;;5052757;28;20201;-91
2022/05/01 04:51:41;;;;;;;4.37;3.97;;;;;;;;;;5070145;28;20231;-94
2022/05/01 04:54:08;;;;;;;3.83;3.43;;;;;;;;;;5072873;28;20204;-95
2022/05/01 04:59:20;;;;;;;6.00;3.73;;;;;;;;;;5072669;28;20176;-92
2022/05/01 05:01:47;;;;;;;4.80;3.47;;;;;;;;;;5072907;28;20193;-91
2022/05/01 05:04:15;;;;;;;3.60;3.30;;;;;;;;;;5064473;28;20280;-92
2022/05/01 05:06:43;;;;;;;3.83;3.47;;;;;;;;;;5072095;28;20221;-89
2022/05/01 05:11:54;;;;;;;6.80;3.97;;;;;;;;;;5072530;28;20184;-89
2022/05/01 05:14:22;;;;;;;6.33;4.40;;;;;;;;;;5072417;28;20205;-89
2022/05/01 05:16:51;;;;;;;5.67;4.40;;;;;;;;;;5079347;28;20193;-88
2022/05/01 05:19:18;;;;;;;17.80;16.00;;;;;;;;;;5077948;28;20185;-90
2022/05/01 05:21:47;;;;;;;20.67;17.67;;;;;;;;;;5076637;28;20201;-90
2022/05/01 05:24:17;;;;;;;15.57;12.40;;;;;;;;;;5076287;28;20718;-90
2022/05/01 05:26:44;;;;;;;6.87;5.60;;;;;;;;;;5076446;28;20220;-89
2022/05/01 05:29:18;;;;;;;5.83;4.50;;;;;;;;;;5076599;28;20201;-90
2022/05/01 05:31:45;;;;;;;15.70;14.10;;;;;;;;;;5076751;28;20574;-89
2022/05/01 05:34:12;;;;;;;9.73;8.73;;;;;;;;;;5076793;28;20200;-89
2022/05/01 05:36:39;;;;;;;8.50;6.83;;;;;;;;;;5076646;28;20193;-88
2022/05/01 05:39:10;;;;;;;7.03;4.90;;;;;;;;;;5076534;28;20288;-89
2022/05/01 05:41:37;;;;;;;6.23;4.07;;;;;;;;;;5076034;28;20197;-89
2022/05/01 05:44:11;;;;;;;5.03;4.30;;;;;;;;;;5076091;28;20203;-89
2022/05/01 05:46:38;;;;;;;3.70;3.37;;;;;;;;;;5075566;28;20231;-89
2022/05/01 05:49:05;;;;;;;4.00;3.63;;;;;;;;;;5075980;28;20683;-89
2022/05/01 05:51:32;;;;;;;5.77;3.67;;;;;;;;;;5075759;28;20612;-87
2022/05/01 05:54:00;;;;;;;3.50;3.20;;;;;;;;;;5077572;28;20595;-86
2022/05/01 05:56:28;;;;;;;2.87;2.67;;;;;;;;;;5078371;28;20205;-87
2022/05/01 05:58:59;;;;;;;2.93;2.73;;;;;;;;;;5075821;28;20281;-86
2022/05/01 06:01:26;;;;;;;3.80;2.57;;;;;;;;;;5075506;28;20283;-86
2022/05/01 06:03:53;;;;;;;2.37;2.13;;;;;;;;;;5076217;28;20211;-87
2022/05/01 06:06:21;;;;;;;3.50;2.80;;;;;;;;;;5075429;28;20229;-87
2022/05/01 06:08:48;;;;;;;3.23;2.60;;;;;;;;;;5075604;28;20185;-85
2022/05/01 06:11:15;;;;;;;3.23;2.50;;;;;;;;;;5074811;28;20200;-87
2022/05/01 06:13:44;;;;;;;2.23;1.70;;;;;;;;;;5075503;28;20203;-88
2022/05/01 06:16:14;;;;;;;2.10;1.90;;;;;;;;;;5075311;28;20200;-87
2022/05/01 06:18:44;;;;;;;3.17;2.00;;;;;;;;;;5082328;28;20219;-87
2022/05/01 06:21:15;;;;;;;1.73;1.63;;;;;;;;;;5095917;28;20290;-87
2022/05/01 06:23:48;;;;;;;1.83;1.73;;;;;;;;;;5096252;28;20657;-87
2022/05/01 06:26:15;;;;;;;2.47;1.73;;;;;;;;;;5095461;28;20277;-87
2022/05/01 06:28:44;;;;;;;2.00;1.87;;;;;;;;;;5095761;28;20199;-87
2022/05/01 06:31:15;;;;;;;2.00;1.70;;;;;;;;;;5095710;28;20260;-87
2022/05/01 06:33:46;;;;;;;2.00;1.90;;;;;;;;;;5095185;28;20283;-87
2022/05/01 06:36:15;;;;;;;2.43;2.23;;;;;;;;;;5095684;28;20279;-87
2022/05/01 06:38:43;;;;;;;2.23;1.80;;;;;;;;;;5095284;28;20196;-88
2022/05/01 06:41:10;;;;;;;2.47;2.10;;;;;;;;;;5095573;28;20617;-88
2022/05/01 06:43:37;;;;;;;1.83;1.73;;;;;;;;;;5095211;28;20587;-88
2022/05/01 06:46:06;;;;;;;2.10;2.00;;;;;;;;;;5095256;28;20216;-87
2022/05/01 06:48:33;;;;;;;26.80;10.37;;;;;;;;;;5095493;28;20218;-88
2022/05/01 06:51:01;;;;;;;11.00;5.00;;;;;;;;;;5097149;28;20672;-88
2022/05/01 06:53:28;;;;;;;6.57;4.07;;;;;;;;;;5096643;28;20194;-88
2022/05/01 06:55:57;;;;;;;2.33;2.20;;;;;;;;;;5094997;28;20196;-88
2022/05/01 06:58:24;;;;;;;2.40;1.93;;;;;;;;;;5094656;28;20289;-88
2022/05/01 07:00:54;;;;;;;2.23;2.00;;;;;;;;;;5094397;28;20287;-88
2022/05/01 07:03:26;;;;;;;2.07;1.40;;;;;;;;;;5094845;28;20643;-88
2022/05/01 07:05:54;;;;;;;3.80;2.20;;;;;;;;;;5094575;28;20225;-88
2022/05/01 07:08:23;;;;;;;5.87;2.93;;;;;;;;;;5094859;28;20204;-88
2022/05/01 07:10:50;;;;;;;25.87;8.37;;;;;;;;;;5094702;28;20196;-87
2022/05/01 07:13:17;;;;;;;7.33;3.03;;;;;;;;;;5094535;28;20202;-87
2022/05/01 07:15:44;;;;;;;2.60;1.87;;;;;;;;;;5094510;28;20562;-87
2022/05/01 07:18:14;;;;;;;2.27;2.07;;;;;;;;;;5095764;28;20208;-88
2022/05/01 07:20:47;;;;;;;3.53;1.60;;;;;;;;;;5095231;28;20246;-87
2022/05/01 07:23:14;;;;;;;3.07;1.87;;;;;;;;;;5093965;28;20195;-88
2022/05/01 07:25:44;;;;;;;1.67;1.57;;;;;;;;;;5093968;28;20673;-87
2022/05/01 07:28:11;;;;;;;16.87;6.27;;;;;;;;;;5094263;28;20195;-85
2022/05/01 07:30:38;;;;;;;4.70;2.07;;;;;;;;;;5093821;28;20197;-86
2022/05/01 07:33:06;;;;;;;12.47;4.50;;;;;;;;;;5093997;28;20199;-85
2022/05/01 07:35:33;;;;;;;9.77;3.50;;;;;;;;;;5093895;28;20210;-87
2022/05/01 07:38:02;;;;;;;2.33;1.80;;;;;;;;;;5077264;28;20211;-87
2022/05/01 07:40:29;;;;;;;1.73;1.63;;;;;;;;;;5073269;28;20196;-86
2022/05/01 07:42:56;;;;;;;2.07;1.37;;;;;;;;;;5073843;28;20200;-87
2022/05/01 07:45:24;;;;;;;1.90;1.77;;;;;;;;;;5073622;28;20200;-86
2022/05/01 07:47:51;;;;;;;1.73;1.63;;;;;;;;;;5073678;28;20230;-86
2022/05/01 07:50:20;;;;;;;1.63;1.53;;;;;;;;;;5073104;28;20241;-88
2022/05/01 07:52:49;;;;;;;2.67;2.10;;;;;;;;;;5073542;28;20216;-87
2022/05/01 07:55:30;;;;;;;3.40;1.80;;;;;;;;;;5073161;28;20686;-89
2022/05/01 07:57:58;;;;;;;2.67;2.30;;;;;;;;;;5073727;28;20620;-88
2022/05/01 08:00:25;;;;;;;2.27;1.90;;;;;;;;;;5073399;28;20633;-88
2022/05/01 08:05:40;;;;;;;2.50;2.17;;;;;;;;;;5073410;28;20184;-88
2022/05/01 08:08:10;;;;;;;2.57;2.07;;;;;;;;;;5073397;28;20197;-88
2022/05/01 08:10:39;;;;;;;4.20;2.50;;;;;;;;;;5073336;28;20227;-87
2022/05/01 08:13:07;;;;;;;2.40;2.20;;;;;;;;;;5073518;28;20191;-88
2022/05/01 08:15:34;;;;;;;5.27;2.67;;;;;;;;;;5073249;28;20191;-88
2022/05/01 08:21:31;;;;;;;;;;;;;;;;;;;;;
2022/05/01 08:23:58;;;;;;;3.27;2.13;;;;;;;;;;4996316;28;20691;-87
2022/05/01 08:26:27;;;;;;;2.53;2.20;;;;;;;;;;5072671;28;20227;-88
2022/05/01 08:28:56;;;;;;;2.50;2.30;;;;;;;;;;5072803;28;20291;-88
2022/05/01 08:31:23;;;;;;;15.90;3.73;;;;;;;;;;5072872;28;20210;-87
2022/05/01 08:33:57;;;;;;;4.33;2.77;;;;;;;;;;5072719;28;20202;-87
2022/05/01 08:36:24;;;;;;;2.70;2.50;;;;;;;;;;5073215;28;20193;-87
2022/05/01 08:38:54;;;;;;;2.63;2.30;;;;;;;;;;5072852;28;20193;-87
2022/05/01 08:41:22;;;;;;;3.77;3.30;;;;;;;;;;5072962;28;20195;-88
2022/05/01 08:43:53;;;;;;;5.20;4.70;;;;;;;;;;5072979;28;20238;-88
2022/05/01 08:46:45;;;;;;;5.43;3.50;;;;;;;;;;5073127;28;20564;-88
2022/05/01 08:49:16;;;;;;;4.23;2.90;;;;;;;;;;5074853;28;20194;-84
2022/05/01 08:51:44;;;;;;;3.13;2.77;;;;;;;;;;5079354;28;20251;-89
2022/05/01 08:54:15;;;;;;;2.57;2.37;;;;;;;;;;5073316;28;20197;-85
2022/05/01 08:56:46;;;;;;;2.27;2.07;;;;;;;;;;5078143;28;20215;-86
2022/05/01 08:59:20;;;;;;;4.83;2.70;;;;;;;;;;5072659;28;20201;-89
2022/05/01 09:01:48;;;;;;;2.80;2.60;;;;;;;;;;5072857;28;20725;-89
2022/05/01 09:04:15;;;;;;;4.80;2.43;;;;;;;;;;5072246;28;20222;-88
2022/05/01 09:06:44;;;;;;;58.77;54.20;;;;;;;;;;5072247;28;20251;-89
2022/05/01 09:09:17;;;;;;;9.43;8.53;;;;;;;;;;5072600;28;20223;-89
2022/05/01 09:14:32;;;;;;;3.87;3.57;;;;;;;;;;5072611;28;20259;-89
2022/05/01 09:17:23;;;;;;;4.37;3.97;;;;;;;;;;5072610;28;20218;-88
2022/05/01 09:19:51;;;;;;;7.23;6.53;;;;;;;;;;5070044;28;20200;-89
2022/05/01 09:22:19;;;;;;;6.23;5.63;;;;;;;;;;5074855;28;20205;-89
2022/05/01 09:24:52;;;;;;;6.87;5.07;;;;;;;;;;5074750;28;20201;-89
2022/05/01 09:27:29;;;;;;;7.57;6.77;;;;;;;;;;5072260;28;20300;-89
2022/05/01 09:30:15;;;;;;;4.50;3.27;;;;;;;;;;5072606;28;20258;-89
2022/05/01 09:32:44;;;;;;;3.20;2.57;;;;;;;;;;5072590;28;20204;-88
2022/05/01 09:35:16;;;;;;;3.13;2.83;;;;;;;;;;5072001;28;20201;-89
2022/05/01 09:37:44;;;;;;;4.83;3.40;;;;;;;;;;5072630;28;20179;-89
2022/05/01 09:40:13;;;;;;;4.43;3.47;;;;;;;;;;5072626;28;20192;-87
2022/05/01 09:42:40;;;;;;;11.10;9.80;;;;;;;;;;5072527;28;20208;-88
2022/05/01 09:45:11;;;;;;;4.70;4.20;;;;;;;;;;5072009;28;20235;-87
2022/05/01 09:47:41;;;;;;;7.80;7.20;;;;;;;;;;5072017;28;20208;-87
2022/05/01 09:50:10;;;;;;;6.10;5.70;;;;;;;;;;5072093;28;20597;-87
2022/05/01 09:52:59;;;;;;;3.80;3.60;;;;;;;;;;5071482;28;20662;-87
2022/05/01 09:55:27;;;;;;;3.87;3.67;;;;;;;;;;5071450;28;20276;-86
2022/05/01 09:58:09;;;;;;;2.53;2.17;;;;;;;;;;5076465;28;20205;-86
2022/05/01 10:00:41;;;;;;;5.53;3.27;;;;;;;;;;5091548;28;20185;-86
2022/05/01 10:03:24;;;;;;;3.20;2.70;;;;;;;;;;5093646;28;20189;-86
2022/05/01 10:05:52;;;;;;;4.67;3.17;;;;;;;;;;5095093;28;20188;-86
2022/05/01 10:08:20;;;;;;;2.73;2.50;;;;;;;;;;5095364;28;20261;-86
2022/05/01 10:10:49;;;;;;;3.10;2.23;;;;;;;;;;5094942;28;20718;-85
2022/05/01 10:13:27;;;;;;;2.43;2.17;;;;;;;;;;5095329;28;20199;-86
2022/05/01 10:15:54;;;;;;;3.57;2.67;;;;;;;;;;5095461;28;20799;-86
2022/05/01 10:18:26;;;;;;;6.57;6.03;;;;;;;;;;5094826;28;20290;-86
2022/05/01 10:20:56;;;;;;;4.90;4.40;;;;;;;;;;5094933;28;20204;-86
2022/05/01 10:23:23;;;;;;;3.73;3.43;;;;;;;;;;5094782;28;20194;-86
2022/05/01 10:25:54;;;;;;;2.77;2.53;;;;;;;;;;5094589;28;20692;-86
2022/05/01 10:28:39;;;;;;;5.60;3.40;;;;;;;;;;5094957;28;20207;-86
2022/05/01 10:34:15;;;;;;;4.53;4.13;;;;;;;;;;5086534;28;20198;-84
2022/05/01 10:36:53;;;;;;;3.83;2.90;;;;;;;;;;5080507;28;20688;-85
2022/05/01 10:39:20;;;;;;;3.53;2.67;;;;;;;;;;5078682;28;20198;-85
2022/05/01 10:41:48;;;;;;;12.97;10.20;;;;;;;;;;5073751;28;20265;-86
2022/05/01 10:44:30;;;;;;;4.13;3.47;;;;;;;;;;5073535;28;20246;-85
2022/05/01 10:47:05;;;;;;;5.77;5.17;;;;;;;;;;5077376;28;20220;-85
2022/05/01 10:49:41;;;;;;;6.97;6.27;;;;;;;;;;5093485;28;20187;-86
2022/05/01 10:52:19;;;;;;;9.40;8.60;;;;;;;;;;5093758;28;20198;-85
2022/05/01 10:54:54;;;;;;;7.70;6.97;;;;;;;;;;5093420;28;20192;-86
2022/05/01 10:57:23;;;;;;;4.57;4.17;;;;;;;;;;5080624;28;20282;-85
2022/05/01 11:00:10;;;;;;;2.87;2.47;;;;;;;;;;5073366;28;20200;-85
2022/05/01 11:02:42;;;;;;;2.90;2.40;;;;;;;;;;5073447;28;20619;-85
2022/05/01 11:05:13;;;;;;;4.17;2.43;;;;;;;;;;5073242;28;20200;-86
2022/05/01 11:07:41;;;;;;;3.03;2.83;;;;;;;;;;5072855;28;20224;-86
2022/05/01 11:10:11;;;;;;;2.70;2.40;;;;;;;;;;5072861;28;20246;-85
2022/05/01 11:12:38;;;;;;;4.50;2.17;;;;;;;;;;5073154;28;20228;-85
2022/05/01 11:15:08;;;;;;;3.50;2.57;;;;;;;;;;5072069;28;20645;-86
2022/05/01 11:17:53;;;;;;;2.80;2.60;;;;;;;;;;5073259;28;20602;-86
2022/05/01 11:20:32;;;;;;;2.80;2.50;;;;;;;;;;5072617;28;20183;-85
2022/05/01 11:23:34;;;;;;;3.63;2.87;;;;;;;;;;5072969;28;20183;-86
2022/05/01 11:26:09;;;;;;;2.73;2.40;;;;;;;;;;5073168;28;20570;-85
2022/05/01 11:28:54;;;;;;;2.90;2.70;;;;;;;;;;5072591;28;20222;-86
2022/05/01 11:31:54;;;;;;;2.83;2.63;;;;;;;;;;5073146;28;20640;-86
2022/05/01 11:34:54;;;;;;;3.33;3.07;;;;;;;;;;5010729;28;20190;-84
2022/05/01 11:37:25;;;;;;;4.83;3.13;;;;;;;;;;5011720;28;20190;-86
2022/05/01 11:40:26;;;;;;;4.03;2.70;;;;;;;;;;5011585;28;20203;-86
2022/05/01 11:42:55;;;;;;;3.43;2.97;;;;;;;;;;5011461;28;20292;-86
2022/05/01 11:45:23;;;;;;;4.83;3.20;;;;;;;;;;5025690;28;20721;-86
2022/05/01 11:47:56;;;;;;;4.47;3.23;;;;;;;;;;5031148;28;20225;-86
2022/05/01 11:50:27;;;;;;;3.90;3.50;;;;;;;;;;5030799;28;20234;-86
2022/05/01 11:52:57;;;;;;;2.73;2.50;;;;;;;;;;5030922;28;20202;-86
2022/05/01 12:03:40;;;;;;;8.37;4.70;;;;;;;;;;5051022;28;20230;-86
2022/05/01 12:06:07;;;;;;;4.33;3.50;;;;;;;;;;5086547;28;20205;-86
2022/05/01 12:08:34;;;;;;;6.40;5.63;;;;;;;;;;5092477;28;20231;-86
2022/05/01 12:11:03;;;;;;;11.83;8.03;;;;;;;;;;5093070;28;20207;-86
2022/05/01 12:13:32;;;;;;;8.60;7.70;;;;;;;;;;5092949;28;20201;-86
2022/05/01 12:15:59;;;;;;;3.47;3.17;;;;;;;;;;5093020;28;20227;-86
2022/05/01 12:18:26;;;;;;;7.77;4.73;;;;;;;;;;5092852;28;20211;-86
2022/05/01 12:20:53;;;;;;;3.13;2.83;;;;;;;;;;5092897;28;20633;-87
2022/05/01 12:23:22;;;;;;;3.33;3.00;;;;;;;;;;5092648;28;20199;-86
2022/05/01 12:25:51;;;;;;;15.80;6.40;;;;;;;;;;5092316;28;20286;-86
2022/05/01 12:28:20;;;;;;;17.33;6.57;;;;;;;;;;5092868;28;20274;-86
2022/05/01 12:30:51;;;;;;;16.90;5.60;;;;;;;;;;5092318;28;20199;-86
2022/05/01 12:33:20;;;;;;;8.53;3.70;;;;;;;;;;5092841;28;20264;-86
2022/05/01 12:35:55;;;;;;;3.47;3.17;;;;;;;;;;5092377;28;20667;-86
2022/05/01 12:38:23;;;;;;;2.63;2.43;;;;;;;;;;5092561;28;20259;-86
2022/05/01 12:43:52;;;;;;;4.53;3.60;;;;;;;;;;5091792;28;20684;-86
2022/05/01 12:46:23;;;;;;;4.53;3.00;;;;;;;;;;5092071;28;20192;-85
2022/05/01 12:48:50;;;;;;;4.73;3.00;;;;;;;;;;5092101;28;20706;-86
2022/05/01 12:51:18;;;;;;;4.93;3.73;;;;;;;;;;5091927;28;20290;-86
2022/05/01 12:53:45;;;;;;;4.10;3.23;;;;;;;;;;5092419;28;20206;-85
2022/05/01 12:56:23;;;;;;;3.43;3.13;;;;;;;;;;5095051;28;20203;-86
2022/05/01 12:58:52;;;;;;;3.33;3.03;;;;;;;;;;5091939;28;20716;-86
2022/05/01 13:01:24;;;;;;;4.70;4.30;;;;;;;;;;5092097;28;20284;-86
2022/05/01 13:03:52;;;;;;;3.20;2.90;;;;;;;;;;5092359;28;20203;-86
2022/05/01 13:06:20;;;;;;;3.20;2.90;;;;;;;;;;5091785;28;20206;-86
2022/05/01 13:08:48;;;;;;;3.00;2.80;;;;;;;;;;5091484;28;20714;-86
2022/05/01 13:11:23;;;;;;;2.93;2.73;;;;;;;;;;5092321;28;20570;-86
2022/05/01 13:13:54;;;;;;;2.70;2.50;;;;;;;;;;5091960;28;20267;-86
2022/05/01 13:16:42;;;;;;;4.43;2.90;;;;;;;;;;5092263;28;20270;-86
2022/05/01 13:19:10;;;;;;;5.43;3.37;;;;;;;;;;5092233;28;20569;-86
2022/05/01 13:21:39;;;;;;;4.07;2.77;;;;;;;;;;5091670;28;20194;-86
2022/05/01 13:24:09;;;;;;;3.53;2.63;;;;;;;;;;5091996;28;20199;-86
2022/05/01 13:26:37;;;;;;;4.43;3.30;;;;;;;;;;5092184;28;20193;-86
2022/05/01 13:29:07;;;;;;;3.93;3.63;;;;;;;;;;5092019;28;20609;-86
2022/05/01 13:31:35;;;;;;;3.93;3.27;;;;;;;;;;5091958;28;20605;-86
2022/05/01 13:34:03;;;;;;;2.80;2.60;;;;;;;;;;5091348;28;20283;-86
2022/05/01 13:36:30;;;;;;;3.10;2.90;;;;;;;;;;5090903;28;20571;-86
2022/05/01 13:38:58;;;;;;;3.30;3.00;;;;;;;;;;5095035;28;20197;-86
2022/05/01 13:47:08;;;;;;;2.80;2.60;;;;;;;;;;5027870;28;20348;-86
2022/05/01 13:49:40;;;;;;;3.40;3.10;;;;;;;;;;5075508;28;20604;-87
2022/05/01 13:52:09;;;;;;;3.73;3.37;;;;;;;;;;5075797;28;20568;-87
2022/05/01 13:54:36;;;;;;;8.07;7.07;;;;;;;;;;5075515;28;20203;-86
2022/05/01 13:57:04;;;;;;;3.67;3.37;;;;;;;;;;5075138;28;20195;-87
2022/05/01 13:59:36;;;;;;;3.13;2.93;;;;;;;;;;5075628;28;20204;-86
2022/05/01 14:02:04;;;;;;;7.53;4.13;;;;;;;;;;5075074;28;20190;-87
2022/05/01 14:04:32;;;;;;;3.30;3.10;;;;;;;;;;5074805;28;20199;-86
2022/05/01 14:06:59;;;;;;;3.50;3.23;;;;;;;;;;5075096;28;20277;-86
2022/05/01 14:09:29;;;;;;;5.50;3.57;;;;;;;;;;5074509;28;20701;-86
2022/05/01 14:11:57;;;;;;;5.70;3.40;;;;;;;;;;5075045;28;20193;-87
2022/05/01 14:14:26;;;;;;;4.50;4.10;;;;;;;;;;5074649;28;20248;-86
2022/05/01 14:16:54;;;;;;;5.63;4.23;;;;;;;;;;5075136;28;20224;-87
2022/05/01 14:19:23;;;;;;;3.87;3.23;;;;;;;;;;5075380;28;20216;-87
2022/05/01 14:21:50;;;;;;;6.70;3.13;;;;;;;;;;5075242;28;20197;-87
2022/05/01 14:24:18;;;;;;;3.73;3.30;;;;;;;;;;5075591;28;20612;-87
2022/05/01 14:26:46;;;;;;;3.30;3.00;;;;;;;;;;5075090;28;20202;-87
2022/05/01 14:29:14;;;;;;;3.77;3.47;;;;;;;;;;5075113;28;20225;-88
2022/05/01 14:31:42;;;;;;;6.27;5.67;;;;;;;;;;5075058;28;20197;-88
2022/05/01 14:34:24;;;;;;;5.10;4.13;;;;;;;;;;5074608;28;20203;-88
2022/05/01 14:36:56;;;;;;;8.17;7.07;;;;;;;;;;5075358;28;20639;-87
2022/05/01 14:39:24;;;;;;;7.37;5.80;;;;;;;;;;5074929;28;20731;-88
2022/05/01 14:41:52;;;;;;;7.97;5.13;;;;;;;;;;5074903;28;20201;-88
2022/05/01 14:44:23;;;;;;;7.43;5.07;;;;;;;;;;5074703;28;20704;-88
2022/05/01 14:46:56;;;;;;;5.93;5.33;;;;;;;;;;5074738;28;20193;-88
2022/05/01 14:49:35;;;;;;;7.00;5.00;;;;;;;;;;5073550;28;20582;-87
2022/05/01 14:52:07;;;;;;;10.07;6.87;;;;;;;;;;5074471;28;20182;-88
2022/05/01 14:54:37;;;;;;;5.90;4.23;;;;;;;;;;5074784;28;20300;-88
2022/05/01 14:57:10;;;;;;;5.87;3.67;;;;;;;;;;5074710;28;20218;-88
2022/05/01 15:08:03;;;;;;;3.90;3.50;;;;;;;;;;5074532;28;20692;-87
2022/05/01 15:10:30;;;;;;;3.30;3.00;;;;;;;;;;5074691;28;20244;-88
2022/05/01 15:12:58;;;;;;;3.13;2.93;;;;;;;;;;5074295;28;20281;-88
2022/05/01 15:15:31;;;;;;;5.10;3.00;;;;;;;;;;5074179;28;20262;-88
2022/05/01 15:18:01;;;;;;;3.77;2.90;;;;;;;;;;5074300;28;20281;-87
2022/05/01 15:20:31;;;;;;;4.77;2.70;;;;;;;;;;5074187;28;20636;-88
2022/05/01 15:23:11;;;;;;;4.53;3.33;;;;;;;;;;5074257;28;20201;-87
2022/05/01 15:25:41;;;;;;;3.67;3.40;;;;;;;;;;5074328;28;20249;-87
2022/05/01 15:28:11;;;;;;;3.83;3.00;;;;;;;;;;5072702;28;20216;-90
2022/05/01 15:30:43;;;;;;;4.00;2.90;;;;;;;;;;5073901;28;20219;-89
2022/05/01 15:33:42;;;;;;;3.37;3.07;;;;;;;;;;5074208;28;20194;-90
2022/05/01 15:36:09;;;;;;;4.97;3.50;;;;;;;;;;5073313;28;20254;-90
2022/05/01 15:38:40;;;;;;;8.67;5.30;;;;;;;;;;5073962;28;20190;-90
2022/05/01 15:41:17;;;;;;;8.77;6.97;;;;;;;;;;5073716;28;20189;-90
2022/05/01 15:43:44;;;;;;;3.70;3.40;;;;;;;;;;5073945;28;20647;-89
2022/05/01 15:46:28;;;;;;;4.10;3.73;;;;;;;;;;5074048;28;20197;-90
2022/05/01 15:54:30;;;;;;;6.07;5.20;;;;;;;;;;5073929;28;20185;-90
2022/05/01 15:56:58;;;;;;;5.00;4.60;;;;;;;;;;5073664;28;20201;-90
2022/05/01 15:59:29;;;;;;;6.23;5.23;;;;;;;;;;5079065;28;20201;-89
2022/05/01 16:01:59;;;;;;;7.17;6.47;;;;;;;;;;5073229;28;20197;-90
2022/05/01 16:04:31;;;;;;;6.47;5.87;;;;;;;;;;5073618;28;20258;-90